Jacksonville, Florida
Current Conditions -  °F | °C
As of 12:56 AM on Thursday 27 Nov 2014 (Local Time) from KJAX Reporting Station
Clear Clear  
Wind Chill: 36°   Ceiling: Unl
Heat Index: 41°   Visibility: 10mi
Dew Point: 38°   Wind: 8mph
Humidity: 89%   Direction: 260°W
Pressure: 30.2"   Gusts: NA
Location:  30.32°N, 81.66°W
Report Text: KJAX 270556Z 26007KT 10SM CLR 05/03 A3020 RMK AO2 SLP228 T00500033 10100 20050 51006 $
Loading
Personal Weather Stations






























Interactive Weather Map New forecast layout! Learn more

10-Day Weather Forecast

Advertisements
Track Severe Weather on mobile